sensor_id;sensor_type;location;lat;lon;timestamp;pressure;altitude;pressure_sealevel;temperature;humidity
7480;BME280;3781;42.272;22.658;2022-10-31T00:00:52;95070.28;;;11.25;81.50
7480;BME280;3781;42.272;22.658;2022-10-31T00:03:18;95080.75;;;11.35;80.66
7480;BME280;3781;42.272;22.658;2022-10-31T00:05:48;95075.53;;;11.35;80.51
7480;BME280;3781;42.272;22.658;2022-10-31T00:08:16;95056.94;;;11.19;81.21
7480;BME280;3781;42.272;22.658;2022-10-31T00:10:43;95050.66;;;11.42;79.45
7480;BME280;3781;42.272;22.658;2022-10-31T00:13:12;95090.50;;;11.63;78.79
7480;BME280;3781;42.272;22.658;2022-10-31T00:15:39;95085.78;;;11.57;79.05
7480;BME280;3781;42.272;22.658;2022-10-31T00:18:07;95085.97;;;11.65;78.42
7480;BME280;3781;42.272;22.658;2022-10-31T00:20:34;95060.38;;;11.19;79.19
7480;BME280;3781;42.272;22.658;2022-10-31T00:23:03;95072.59;;;11.49;78.15
7480;BME280;3781;42.272;22.658;2022-10-31T00:25:34;95064.94;;;11.48;77.81
7480;BME280;3781;42.272;22.658;2022-10-31T00:28:01;95075.69;;;11.64;76.50
7480;BME280;3781;42.272;22.658;2022-10-31T00:30:28;95073.44;;;12.00;75.23
7480;BME280;3781;42.272;22.658;2022-10-31T00:32:54;95067.91;;;12.34;72.53
7480;BME280;3781;42.272;22.658;2022-10-31T00:35:21;95067.53;;;12.48;71.56
7480;BME280;3781;42.272;22.658;2022-10-31T00:37:48;95053.38;;;12.22;72.61
7480;BME280;3781;42.272;22.658;2022-10-31T00:40:16;95056.47;;;12.06;74.08
7480;BME280;3781;42.272;22.658;2022-10-31T00:42:43;95020.69;;;11.68;74.98
7480;BME280;3781;42.272;22.658;2022-10-31T00:45:10;95044.03;;;11.79;75.57
7480;BME280;3781;42.272;22.658;2022-10-31T00:47:37;95054.19;;;11.82;75.50
7480;BME280;3781;42.272;22.658;2022-10-31T00:50:04;95017.72;;;11.73;74.88
7480;BME280;3781;42.272;22.658;2022-10-31T00:52:31;95046.88;;;12.06;73.95
7480;BME280;3781;42.272;22.658;2022-10-31T00:54:58;94966.94;;;11.58;73.44
7480;BME280;3781;42.272;22.658;2022-10-31T00:57:26;95055.69;;;12.15;73.06
7480;BME280;3781;42.272;22.658;2022-10-31T00:59:53;95055.88;;;12.33;71.63
7480;BME280;3781;42.272;22.658;2022-10-31T01:02:19;95066.38;;;12.22;71.75
7480;BME280;3781;42.272;22.658;2022-10-31T01:04:46;95065.59;;;11.91;73.66
7480;BME280;3781;42.272;22.658;2022-10-31T01:07:13;95062.25;;;11.79;74.69
7480;BME280;3781;42.272;22.658;2022-10-31T01:09:39;95067.03;;;11.33;77.94
7480;BME280;3781;42.272;22.658;2022-10-31T01:12:07;95072.03;;;11.04;81.42
7480;BME280;3781;42.272;22.658;2022-10-31T01:14:35;95075.53;;;11.14;81.00
7480;BME280;3781;42.272;22.658;2022-10-31T01:17:02;95072.78;;;11.16;80.84
7480;BME280;3781;42.272;22.658;2022-10-31T01:19:28;95061.63;;;11.46;78.47
7480;BME280;3781;42.272;22.658;2022-10-31T01:21:55;95074.72;;;11.34;78.46
7480;BME280;3781;42.272;22.658;2022-10-31T01:24:22;95082.03;;;10.88;81.98
7480;BME280;3781;42.272;22.658;2022-10-31T01:26:49;95079.16;;;10.59;84.90
7480;BME280;3781;42.272;22.658;2022-10-31T01:29:15;95074.88;;;10.81;84.56
7480;BME280;3781;42.272;22.658;2022-10-31T01:31:43;95075.91;;;11.10;81.85
7480;BME280;3781;42.272;22.658;2022-10-31T01:34:13;95072.47;;;10.89;82.96
7480;BME280;3781;42.272;22.658;2022-10-31T01:36:41;95042.34;;;10.86;82.94
7480;BME280;3781;42.272;22.658;2022-10-31T01:39:10;95062.25;;;10.97;83.37
7480;BME280;3781;42.272;22.658;2022-10-31T01:41:40;95050.94;;;10.66;84.67
7480;BME280;3781;42.272;22.658;2022-10-31T01:47:13;95065.78;;;10.75;86.63
7480;BME280;3781;42.272;22.658;2022-10-31T01:49:44;95049.66;;;11.13;82.96
7480;BME280;3781;42.272;22.658;2022-10-31T01:52:16;95059.22;;;11.12;82.47
7480;BME280;3781;42.272;22.658;2022-10-31T01:54:48;95053.78;;;11.15;81.90
7480;BME280;3781;42.272;22.658;2022-10-31T01:57:18;95048.13;;;11.31;80.06
7480;BME280;3781;42.272;22.658;2022-10-31T01:59:49;95045.53;;;11.31;79.18
7480;BME280;3781;42.272;22.658;2022-10-31T02:02:19;95055.69;;;11.34;80.25
7480;BME280;3781;42.272;22.658;2022-10-31T02:04:47;95065.25;;;11.13;80.90
7480;BME280;3781;42.272;22.658;2022-10-31T02:07:16;95051.84;;;10.76;83.01
7480;BME280;3781;42.272;22.658;2022-10-31T02:09:45;95062.38;;;10.95;83.15
7480;BME280;3781;42.272;22.658;2022-10-31T02:12:14;95065.59;;;10.88;82.67
7480;BME280;3781;42.272;22.658;2022-10-31T02:14:42;95068.66;;;10.93;84.34
7480;BME280;3781;42.272;22.658;2022-10-31T02:17:08;95076.16;;;10.75;84.91
7480;BME280;3781;42.272;22.658;2022-10-31T02:19:43;95046.91;;;10.41;87.19
7480;BME280;3781;42.272;22.658;2022-10-31T02:22:19;95065.66;;;10.34;89.73
7480;BME280;3781;42.272;22.658;2022-10-31T02:24:58;95073.13;;;10.16;92.10
7480;BME280;3781;42.272;22.658;2022-10-31T02:27:55;95060.09;;;10.49;90.16
7480;BME280;3781;42.272;22.658;2022-10-31T02:30:37;95067.16;;;10.47;90.36
7480;BME280;3781;42.272;22.658;2022-10-31T02:33:16;95045.38;;;10.28;91.71
7480;BME280;3781;42.272;22.658;2022-10-31T02:36:01;95043.84;;;10.36;90.93
7480;BME280;3781;42.272;22.658;2022-10-31T02:38:43;95053.50;;;10.45;90.72
7480;BME280;3781;42.272;22.658;2022-10-31T02:41:18;95061.31;;;10.34;92.60
7480;BME280;3781;42.272;22.658;2022-10-31T02:43:54;95064.09;;;10.42;93.62
7480;BME280;3781;42.272;22.658;2022-10-31T02:46:25;95062.72;;;10.38;93.48
7480;BME280;3781;42.272;22.658;2022-10-31T02:48:59;95058.00;;;10.32;94.09
7480;BME280;3781;42.272;22.658;2022-10-31T02:51:28;95065.53;;;10.35;94.11
7480;BME280;3781;42.272;22.658;2022-10-31T02:53:54;95062.50;;;10.19;95.76
7480;BME280;3781;42.272;22.658;2022-10-31T02:56:21;95059.72;;;10.11;97.38
7480;BME280;3781;42.272;22.658;2022-10-31T02:58:50;95057.06;;;10.22;96.04
7480;BME280;3781;42.272;22.658;2022-10-31T03:01:40;95062.88;;;10.15;95.49
7480;BME280;3781;42.272;22.658;2022-10-31T03:04:37;95067.72;;;10.19;94.52
7480;BME280;3781;42.272;22.658;2022-10-31T03:07:12;95037.41;;;9.98;94.50
7480;BME280;3781;42.272;22.658;2022-10-31T03:09:48;95071.47;;;9.93;97.98
7480;BME280;3781;42.272;22.658;2022-10-31T03:12:24;95047.91;;;9.63;100.00
7480;BME280;3781;42.272;22.658;2022-10-31T03:14:58;95085.16;;;9.73;100.00
7480;BME280;3781;42.272;22.658;2022-10-31T03:17:33;95078.16;;;9.40;100.00
7480;BME280;3781;42.272;22.658;2022-10-31T03:20:06;95074.03;;;9.38;100.00
7480;BME280;3781;42.272;22.658;2022-10-31T03:22:37;95075.06;;;9.35;100.00
7480;BME280;3781;42.272;22.658;2022-10-31T03:25:07;95089.00;;;9.34;100.00
7480;BME280;3781;42.272;22.658;2022-10-31T03:27:36;95096.91;;;9.33;100.00
7480;BME280;3781;42.272;22.658;2022-10-31T03:30:06;95094.34;;;9.44;100.00
7480;BME280;3781;42.272;22.658;2022-10-31T03:32:36;95095.97;;;9.45;100.00
7480;BME280;3781;42.272;22.658;2022-10-31T03:35:08;95104.72;;;9.66;96.42
7480;BME280;3781;42.272;22.658;2022-10-31T03:37:37;95094.69;;;9.50;96.27
7480;BME280;3781;42.272;22.658;2022-10-31T03:40:08;95091.28;;;9.50;96.14
7480;BME280;3781;42.272;22.658;2022-10-31T03:42:40;95078.31;;;9.50;95.71
7480;BME280;3781;42.272;22.658;2022-10-31T03:45:11;95073.59;;;9.66;93.81
7480;BME280;3781;42.272;22.658;2022-10-31T03:47:39;95099.09;;;10.16;95.89
7480;BME280;3781;42.272;22.658;2022-10-31T03:50:10;95088.56;;;10.29;97.07
7480;BME280;3781;42.272;22.658;2022-10-31T03:52:41;95082.78;;;10.25;96.32
7480;BME280;3781;42.272;22.658;2022-10-31T03:55:16;95088.94;;;10.24;97.83
7480;BME280;3781;42.272;22.658;2022-10-31T03:57:48;95092.34;;;10.36;96.40
7480;BME280;3781;42.272;22.658;2022-10-31T04:00:18;95099.19;;;10.26;98.90
7480;BME280;3781;42.272;22.658;2022-10-31T04:02:49;95076.44;;;10.18;96.54
7480;BME280;3781;42.272;22.658;2022-10-31T04:05:20;95097.53;;;10.25;97.20
7480;BME280;3781;42.272;22.658;2022-10-31T04:07:50;95075.47;;;10.41;94.03
7480;BME280;3781;42.272;22.658;2022-10-31T04:10:18;95104.69;;;10.54;93.63
7480;BME280;3781;42.272;22.658;2022-10-31T04:12:50;95074.63;;;10.41;94.19
7480;BME280;3781;42.272;22.658;2022-10-31T04:15:19;95116.00;;;10.65;93.76
7480;BME280;3781;42.272;22.658;2022-10-31T04:17:47;95107.28;;;10.66;94.20
7480;BME280;3781;42.272;22.658;2022-10-31T04:20:18;95119.03;;;10.81;92.05
7480;BME280;3781;42.272;22.658;2022-10-31T04:22:55;95124.22;;;10.81;91.07
7480;BME280;3781;42.272;22.658;2022-10-31T04:25:22;95127.56;;;10.72;92.16
7480;BME280;3781;42.272;22.658;2022-10-31T04:27:49;95120.69;;;10.71;91.07
7480;BME280;3781;42.272;22.658;2022-10-31T04:30:16;95119.22;;;10.89;91.44
7480;BME280;3781;42.272;22.658;2022-10-31T04:32:42;95132.28;;;10.98;91.57
7480;BME280;3781;42.272;22.658;2022-10-31T04:35:09;95132.34;;;11.19;91.13
7480;BME280;3781;42.272;22.658;2022-10-31T04:37:37;95133.22;;;11.29;87.36
7480;BME280;3781;42.272;22.658;2022-10-31T04:40:05;95138.44;;;11.29;86.06
7480;BME280;3781;42.272;22.658;2022-10-31T04:42:32;95125.56;;;11.07;88.76
7480;BME280;3781;42.272;22.658;2022-10-31T04:44:58;95137.78;;;11.16;88.06
7480;BME280;3781;42.272;22.658;2022-10-31T04:47:25;95138.56;;;11.07;88.20
7480;BME280;3781;42.272;22.658;2022-10-31T04:49:52;95140.19;;;11.08;88.25
7480;BME280;3781;42.272;22.658;2022-10-31T04:52:18;95132.59;;;11.16;86.62
7480;BME280;3781;42.272;22.658;2022-10-31T04:54:47;95147.63;;;11.12;85.19
7480;BME280;3781;42.272;22.658;2022-10-31T04:57:13;95149.41;;;11.01;82.42
7480;BME280;3781;42.272;22.658;2022-10-31T04:59:40;95144.34;;;10.99;83.32
7480;BME280;3781;42.272;22.658;2022-10-31T05:02:07;95152.38;;;10.96;83.68
7480;BME280;3781;42.272;22.658;2022-10-31T05:04:33;95144.22;;;11.01;84.26
7480;BME280;3781;42.272;22.658;2022-10-31T05:07:00;95136.72;;;11.18;83.15
7480;BME280;3781;42.272;22.658;2022-10-31T05:09:27;95140.66;;;11.13;83.85
7480;BME280;3781;42.272;22.658;2022-10-31T05:11:55;95130.56;;;10.88;84.95
7480;BME280;3781;42.272;22.658;2022-10-31T05:14:22;95131.97;;;10.92;87.53
7480;BME280;3781;42.272;22.658;2022-10-31T05:16:48;95147.78;;;11.00;88.70
7480;BME280;3781;42.272;22.658;2022-10-31T05:19:15;95122.50;;;11.02;87.81
7480;BME280;3781;42.272;22.658;2022-10-31T05:21:42;95136.88;;;10.74;89.00
7480;BME280;3781;42.272;22.658;2022-10-31T05:24:09;95059.22;;;10.17;90.51
7480;BME280;3781;42.272;22.658;2022-10-31T05:26:36;95149.91;;;10.63;91.01
7480;BME280;3781;42.272;22.658;2022-10-31T05:29:04;95149.53;;;10.68;90.68
7480;BME280;3781;42.272;22.658;2022-10-31T05:31:30;95147.84;;;10.78;88.67
7480;BME280;3781;42.272;22.658;2022-10-31T05:33:57;95144.31;;;10.79;87.86
7480;BME280;3781;42.272;22.658;2022-10-31T05:36:24;95074.66;;;10.30;87.75
7480;BME280;3781;42.272;22.658;2022-10-31T05:38:51;95152.81;;;10.81;87.03
7480;BME280;3781;42.272;22.658;2022-10-31T05:41:18;95146.34;;;10.53;87.48
7480;BME280;3781;42.272;22.658;2022-10-31T05:43:45;95131.41;;;10.23;91.98
7480;BME280;3781;42.272;22.658;2022-10-31T05:46:13;95156.38;;;10.57;98.69
7480;BME280;3781;42.272;22.658;2022-10-31T05:48:39;95166.25;;;10.86;98.71
7480;BME280;3781;42.272;22.658;2022-10-31T05:51:06;95165.00;;;11.01;98.73
7480;BME280;3781;42.272;22.658;2022-10-31T05:53:33;95167.75;;;10.99;100.00
7480;BME280;3781;42.272;22.658;2022-10-31T05:56:00;95161.19;;;11.16;99.16
7480;BME280;3781;42.272;22.658;2022-10-31T05:58:26;95149.50;;;11.83;92.39
7480;BME280;3781;42.272;22.658;2022-10-31T06:00:53;95184.97;;;12.65;87.57
7480;BME280;3781;42.272;22.658;2022-10-31T06:03:21;95189.53;;;13.41;83.10
7480;BME280;3781;42.272;22.658;2022-10-31T06:05:48;95194.34;;;14.40;74.01
7480;BME280;3781;42.272;22.658;2022-10-31T06:08:14;95199.59;;;14.94;69.01
7480;BME280;3781;42.272;22.658;2022-10-31T06:10:41;95191.41;;;15.69;64.70
7480;BME280;3781;42.272;22.658;2022-10-31T06:13:09;95196.09;;;16.01;61.97
7480;BME280;3781;42.272;22.658;2022-10-31T06:15:35;95183.22;;;17.67;56.42
7480;BME280;3781;42.272;22.658;2022-10-31T06:18:04;95201.38;;;18.81;51.57
7480;BME280;3781;42.272;22.658;2022-10-31T06:20:33;95197.19;;;18.95;49.56
7480;BME280;3781;42.272;22.658;2022-10-31T06:23:00;95193.50;;;19.12;50.10
7480;BME280;3781;42.272;22.658;2022-10-31T06:25:27;95203.78;;;19.91;49.26
7480;BME280;3781;42.272;22.658;2022-10-31T06:27:55;95200.72;;;20.91;45.97
7480;BME280;3781;42.272;22.658;2022-10-31T06:30:21;95170.56;;;21.00;44.65
7480;BME280;3781;42.272;22.658;2022-10-31T06:32:48;95205.16;;;21.70;43.66
7480;BME280;3781;42.272;22.658;2022-10-31T06:35:15;95206.63;;;21.72;42.64
7480;BME280;3781;42.272;22.658;2022-10-31T06:37:50;95211.00;;;21.00;43.87
7480;BME280;3781;42.272;22.658;2022-10-31T06:40:17;95206.19;;;21.04;43.83
7480;BME280;3781;42.272;22.658;2022-10-31T06:42:44;95210.41;;;19.87;46.82
7480;BME280;3781;42.272;22.658;2022-10-31T06:45:11;95215.03;;;21.11;44.78
7480;BME280;3781;42.272;22.658;2022-10-31T06:47:37;95219.56;;;21.67;41.62
7480;BME280;3781;42.272;22.658;2022-10-31T06:50:05;95194.44;;;21.07;42.38
7480;BME280;3781;42.272;22.658;2022-10-31T06:52:32;95227.06;;;21.14;43.12
7480;BME280;3781;42.272;22.658;2022-10-31T06:55:00;95210.19;;;21.15;42.55
7480;BME280;3781;42.272;22.658;2022-10-31T06:57:27;95207.94;;;21.12;42.15
7480;BME280;3781;42.272;22.658;2022-10-31T06:59:54;95165.00;;;20.14;44.06
7480;BME280;3781;42.272;22.658;2022-10-31T07:02:21;95196.91;;;19.82;45.31
7480;BME280;3781;42.272;22.658;2022-10-31T07:04:48;95217.28;;;21.14;41.90
7480;BME280;3781;42.272;22.658;2022-10-31T07:07:15;95206.34;;;22.24;40.48
7480;BME280;3781;42.272;22.658;2022-10-31T07:09:41;95215.34;;;22.58;38.96
7480;BME280;3781;42.272;22.658;2022-10-31T07:12:09;95210.34;;;20.84;43.45
7480;BME280;3781;42.272;22.658;2022-10-31T07:14:36;95220.47;;;23.21;39.35
7480;BME280;3781;42.272;22.658;2022-10-31T07:17:03;95211.56;;;23.82;37.83
7480;BME280;3781;42.272;22.658;2022-10-31T07:19:30;95228.19;;;24.17;36.96
7480;BME280;3781;42.272;22.658;2022-10-31T07:21:57;95228.09;;;25.48;34.83
7480;BME280;3781;42.272;22.658;2022-10-31T07:24:23;95210.22;;;24.52;35.82
7480;BME280;3781;42.272;22.658;2022-10-31T07:26:50;95221.69;;;24.72;36.71
7480;BME280;3781;42.272;22.658;2022-10-31T07:29:18;95217.97;;;25.06;34.98
7480;BME280;3781;42.272;22.658;2022-10-31T07:31:45;95222.53;;;24.79;35.05
7480;BME280;3781;42.272;22.658;2022-10-31T07:34:12;95213.63;;;25.24;35.32
7480;BME280;3781;42.272;22.658;2022-10-31T07:36:39;95205.16;;;25.54;34.72
7480;BME280;3781;42.272;22.658;2022-10-31T07:39:05;95232.22;;;26.57;33.13
7480;BME280;3781;42.272;22.658;2022-10-31T07:41:32;95206.81;;;27.58;31.56
7480;BME280;3781;42.272;22.658;2022-10-31T07:43:59;95223.19;;;29.16;29.44
7480;BME280;3781;42.272;22.658;2022-10-31T07:46:27;95217.13;;;29.43;29.38
7480;BME280;3781;42.272;22.658;2022-10-31T07:48:54;95218.31;;;29.01;29.43
7480;BME280;3781;42.272;22.658;2022-10-31T07:51:21;95223.94;;;27.33;32.37
7480;BME280;3781;42.272;22.658;2022-10-31T07:53:49;95214.75;;;28.43;31.21
7480;BME280;3781;42.272;22.658;2022-10-31T07:56:16;95209.72;;;29.22;29.83
7480;BME280;3781;42.272;22.658;2022-10-31T07:58:42;95196.53;;;28.21;30.62
7480;BME280;3781;42.272;22.658;2022-10-31T08:01:09;95218.69;;;27.62;31.65
7480;BME280;3781;42.272;22.658;2022-10-31T08:03:37;95218.53;;;29.11;30.14
7480;BME280;3781;42.272;22.658;2022-10-31T08:06:04;95211.00;;;28.44;30.82
7480;BME280;3781;42.272;22.658;2022-10-31T08:08:31;95219.59;;;29.33;29.92
7480;BME280;3781;42.272;22.658;2022-10-31T08:10:58;95227.09;;;30.39;28.66
7480;BME280;3781;42.272;22.658;2022-10-31T08:13:25;95214.00;;;29.46;29.57
7480;BME280;3781;42.272;22.658;2022-10-31T08:15:52;95215.72;;;31.48;27.38
7480;BME280;3781;42.272;22.658;2022-10-31T08:18:19;95206.41;;;32.21;26.71
7480;BME280;3781;42.272;22.658;2022-10-31T08:20:49;95203.63;;;32.69;25.87
7480;BME280;3781;42.272;22.658;2022-10-31T08:23:16;95206.63;;;32.19;27.50
7480;BME280;3781;42.272;22.658;2022-10-31T08:25:43;95209.25;;;31.11;28.43
7480;BME280;3781;42.272;22.658;2022-10-31T08:28:12;95196.66;;;29.37;30.57
7480;BME280;3781;42.272;22.658;2022-10-31T08:30:44;95164.00;;;29.00;30.57
7480;BME280;3781;42.272;22.658;2022-10-31T08:33:13;95193.31;;;31.04;27.83
7480;BME280;3781;42.272;22.658;2022-10-31T08:35:41;95205.03;;;31.75;25.24
7480;BME280;3781;42.272;22.658;2022-10-31T08:38:10;95208.50;;;31.15;26.20
7480;BME280;3781;42.272;22.658;2022-10-31T08:40:37;95196.34;;;33.43;23.69
7480;BME280;3781;42.272;22.658;2022-10-31T08:43:05;95208.19;;;33.94;23.06
7480;BME280;3781;42.272;22.658;2022-10-31T08:45:33;95210.47;;;34.22;22.66
7480;BME280;3781;42.272;22.658;2022-10-31T08:48:02;95207.59;;;34.64;22.14
7480;BME280;3781;42.272;22.658;2022-10-31T08:50:30;95215.47;;;36.10;20.56
7480;BME280;3781;42.272;22.658;2022-10-31T08:53:01;95209.50;;;36.62;19.63
7480;BME280;3781;42.272;22.658;2022-10-31T08:55:29;95201.66;;;34.87;21.04
7480;BME280;3781;42.272;22.658;2022-10-31T08:57:57;95219.41;;;35.69;20.58
7480;BME280;3781;42.272;22.658;2022-10-31T09:00:24;95199.38;;;34.03;22.30
7480;BME280;3781;42.272;22.658;2022-10-31T09:02:55;95215.59;;;34.19;22.15
7480;BME280;3781;42.272;22.658;2022-10-31T09:05:23;95206.81;;;34.73;21.92
7480;BME280;3781;42.272;22.658;2022-10-31T09:07:50;95215.03;;;34.11;22.61
7480;BME280;3781;42.272;22.658;2022-10-31T09:10:16;95207.03;;;33.23;23.20
7480;BME280;3781;42.272;22.658;2022-10-31T09:12:45;95208.41;;;33.77;22.52
7480;BME280;3781;42.272;22.658;2022-10-31T09:15:11;95207.47;;;34.03;22.85
7480;BME280;3781;42.272;22.658;2022-10-31T09:17:38;95208.53;;;35.74;21.01
7480;BME280;3781;42.272;22.658;2022-10-31T09:20:05;95189.06;;;33.95;22.53
7480;BME280;3781;42.272;22.658;2022-10-31T09:22:32;95192.03;;;31.88;24.54
7480;BME280;3781;42.272;22.658;2022-10-31T09:24:59;95196.84;;;32.61;23.44
7480;BME280;3781;42.272;22.658;2022-10-31T09:27:25;95185.84;;;31.06;25.43
7480;BME280;3781;42.272;22.658;2022-10-31T09:29:53;95191.72;;;31.42;25.00
7480;BME280;3781;42.272;22.658;2022-10-31T09:32:20;95183.00;;;31.73;24.67
7480;BME280;3781;42.272;22.658;2022-10-31T09:34:47;95190.84;;;33.70;22.87
7480;BME280;3781;42.272;22.658;2022-10-31T09:37:14;95192.47;;;35.18;21.47
7480;BME280;3781;42.272;22.658;2022-10-31T09:39:41;95178.25;;;33.95;22.13
7480;BME280;3781;42.272;22.658;2022-10-31T09:42:23;95195.66;;;33.16;23.33
7480;BME280;3781;42.272;22.658;2022-10-31T09:45:02;95186.16;;;33.50;22.14
7480;BME280;3781;42.272;22.658;2022-10-31T09:47:41;95189.69;;;35.43;20.74
7480;BME280;3781;42.272;22.658;2022-10-31T09:50:17;95183.34;;;37.15;19.66
7480;BME280;3781;42.272;22.658;2022-10-31T09:52:54;95181.69;;;36.85;19.60
7480;BME280;3781;42.272;22.658;2022-10-31T09:55:27;95184.91;;;34.85;21.26
7480;BME280;3781;42.272;22.658;2022-10-31T09:57:58;95181.13;;;35.11;20.61
7480;BME280;3781;42.272;22.658;2022-10-31T10:00:27;95173.00;;;34.26;22.05
7480;BME280;3781;42.272;22.658;2022-10-31T10:02:57;95157.16;;;32.79;22.93
7480;BME280;3781;42.272;22.658;2022-10-31T10:05:31;95161.44;;;33.53;22.84
7480;BME280;3781;42.272;22.658;2022-10-31T10:08:01;95166.72;;;33.38;23.32
7480;BME280;3781;42.272;22.658;2022-10-31T10:10:48;95151.28;;;33.85;22.08
7480;BME280;3781;42.272;22.658;2022-10-31T10:13:29;95124.22;;;32.61;23.08
7480;BME280;3781;42.272;22.658;2022-10-31T10:16:12;95152.38;;;33.79;22.70
7480;BME280;3781;42.272;22.658;2022-10-31T10:18:52;95159.50;;;36.05;20.65
7480;BME280;3781;42.272;22.658;2022-10-31T10:21:32;95162.22;;;37.64;18.99
7480;BME280;3781;42.272;22.658;2022-10-31T10:24:12;95150.50;;;36.87;19.39
7480;BME280;3781;42.272;22.658;2022-10-31T10:26:52;95150.78;;;36.57;19.77
7480;BME280;3781;42.272;22.658;2022-10-31T10:29:31;95137.69;;;35.82;19.94
7480;BME280;3781;42.272;22.658;2022-10-31T10:32:05;95150.63;;;34.85;21.47
7480;BME280;3781;42.272;22.658;2022-10-31T10:34:38;95144.38;;;34.14;22.11
7480;BME280;3781;42.272;22.658;2022-10-31T10:37:17;95131.84;;;33.78;22.31
7480;BME280;3781;42.272;22.658;2022-10-31T10:39:51;95141.50;;;33.59;22.52
7480;BME280;3781;42.272;22.658;2022-10-31T10:42:21;95147.94;;;34.65;22.17
7480;BME280;3781;42.272;22.658;2022-10-31T10:45:14;95114.00;;;30.75;25.78
7480;BME280;3781;42.272;22.658;2022-10-31T10:48:06;95118.38;;;32.11;23.97
7480;BME280;3781;42.272;22.658;2022-10-31T10:50:39;95132.44;;;32.87;23.68
7480;BME280;3781;42.272;22.658;2022-10-31T10:53:17;95134.84;;;31.66;24.89
7480;BME280;3781;42.272;22.658;2022-10-31T10:56:00;95120.97;;;32.59;23.64
7480;BME280;3781;42.272;22.658;2022-10-31T10:58:28;95133.59;;;34.20;22.35
7480;BME280;3781;42.272;22.658;2022-10-31T11:00:55;95136.88;;;34.82;21.15
7480;BME280;3781;42.272;22.658;2022-10-31T11:03:24;95131.44;;;35.07;20.54
7480;BME280;3781;42.272;22.658;2022-10-31T11:05:52;95130.88;;;35.15;20.49
7480;BME280;3781;42.272;22.658;2022-10-31T11:08:23;95124.72;;;34.34;21.65
7480;BME280;3781;42.272;22.658;2022-10-31T11:10:58;95104.50;;;34.47;21.44
7480;BME280;3781;42.272;22.658;2022-10-31T11:13:25;95104.16;;;33.21;22.62
7480;BME280;3781;42.272;22.658;2022-10-31T11:16:00;95114.09;;;33.77;21.97
7480;BME280;3781;42.272;22.658;2022-10-31T11:18:32;95126.34;;;35.01;21.23
7480;BME280;3781;42.272;22.658;2022-10-31T11:21:02;95112.09;;;36.13;19.29
7480;BME280;3781;42.272;22.658;2022-10-31T11:23:30;95104.66;;;35.90;19.62
7480;BME280;3781;42.272;22.658;2022-10-31T11:25:59;95091.13;;;32.61;22.36
7480;BME280;3781;42.272;22.658;2022-10-31T11:28:27;95104.16;;;31.89;23.83
7480;BME280;3781;42.272;22.658;2022-10-31T11:30:57;95095.22;;;31.57;23.86
7480;BME280;3781;42.272;22.658;2022-10-31T11:33:28;95092.09;;;31.91;23.32
7480;BME280;3781;42.272;22.658;2022-10-31T11:35:58;95074.16;;;32.60;22.62
7480;BME280;3781;42.272;22.658;2022-10-31T11:38:32;95093.00;;;33.02;22.65
7480;BME280;3781;42.272;22.658;2022-10-31T11:41:09;95092.03;;;33.18;22.12
7480;BME280;3781;42.272;22.658;2022-10-31T11:43:37;95092.50;;;33.82;21.55
7480;BME280;3781;42.272;22.658;2022-10-31T11:46:09;95099.13;;;32.93;21.91
7480;BME280;3781;42.272;22.658;2022-10-31T11:48:38;95096.56;;;33.13;22.37
7480;BME280;3781;42.272;22.658;2022-10-31T11:51:06;95101.25;;;34.65;21.25
7480;BME280;3781;42.272;22.658;2022-10-31T11:53:34;95094.22;;;34.08;21.03
7480;BME280;3781;42.272;22.658;2022-10-31T11:56:04;95087.72;;;31.59;23.77
7480;BME280;3781;42.272;22.658;2022-10-31T11:58:32;95068.88;;;31.10;24.28
7480;BME280;3781;42.272;22.658;2022-10-31T12:00:59;95088.47;;;31.54;23.69
7480;BME280;3781;42.272;22.658;2022-10-31T12:03:51;95056.38;;;30.99;23.97
7480;BME280;3781;42.272;22.658;2022-10-31T12:06:27;95083.84;;;31.06;24.35
7480;BME280;3781;42.272;22.658;2022-10-31T12:08:55;95088.69;;;32.59;23.23
7480;BME280;3781;42.272;22.658;2022-10-31T12:11:40;95091.00;;;34.27;21.16
7480;BME280;3781;42.272;22.658;2022-10-31T12:14:17;95064.75;;;33.05;21.87
7480;BME280;3781;42.272;22.658;2022-10-31T12:16:53;95090.72;;;33.31;21.88
7480;BME280;3781;42.272;22.658;2022-10-31T12:19:31;95046.19;;;32.61;22.34
7480;BME280;3781;42.272;22.658;2022-10-31T12:22:11;95072.06;;;31.51;23.77
7480;BME280;3781;42.272;22.658;2022-10-31T12:25:02;95080.00;;;31.62;23.39
7480;BME280;3781;42.272;22.658;2022-10-31T12:27:39;95078.09;;;31.63;23.59
7480;BME280;3781;42.272;22.658;2022-10-31T12:30:15;95045.81;;;32.11;22.59
7480;BME280;3781;42.272;22.658;2022-10-31T12:33:01;95075.00;;;33.85;21.38
7480;BME280;3781;42.272;22.658;2022-10-31T12:35:44;95064.47;;;35.09;20.32
7480;BME280;3781;42.272;22.658;2022-10-31T12:38:25;95078.88;;;34.54;19.88
7480;BME280;3781;42.272;22.658;2022-10-31T12:41:11;95079.06;;;33.10;21.59
7480;BME280;3781;42.272;22.658;2022-10-31T12:43:45;95075.13;;;31.38;23.12
7480;BME280;3781;42.272;22.658;2022-10-31T12:46:22;95078.50;;;30.68;23.68
7480;BME280;3781;42.272;22.658;2022-10-31T12:49:10;95072.69;;;30.76;23.71
7480;BME280;3781;42.272;22.658;2022-10-31T12:51:49;95072.94;;;30.91;23.58
7480;BME280;3781;42.272;22.658;2022-10-31T12:54:36;95060.28;;;30.32;24.62
7480;BME280;3781;42.272;22.658;2022-10-31T12:57:23;95078.00;;;30.21;25.17
7480;BME280;3781;42.272;22.658;2022-10-31T12:59:57;95061.88;;;30.16;24.84
7480;BME280;3781;42.272;22.658;2022-10-31T13:02:29;95054.69;;;30.22;24.61
7480;BME280;3781;42.272;22.658;2022-10-31T13:05:02;95070.69;;;29.84;24.84
7480;BME280;3781;42.272;22.658;2022-10-31T13:07:34;95079.81;;;30.16;24.78
7480;BME280;3781;42.272;22.658;2022-10-31T13:10:10;95068.50;;;29.69;25.15
7480;BME280;3781;42.272;22.658;2022-10-31T13:12:42;95084.50;;;30.75;24.16
7480;BME280;3781;42.272;22.658;2022-10-31T13:15:16;95076.72;;;30.95;24.22
7480;BME280;3781;42.272;22.658;2022-10-31T13:17:45;95092.38;;;30.82;24.37
7480;BME280;3781;42.272;22.658;2022-10-31T13:20:23;95094.94;;;30.55;24.78
7480;BME280;3781;42.272;22.658;2022-10-31T13:22:54;95068.34;;;30.20;25.29
7480;BME280;3781;42.272;22.658;2022-10-31T13:25:26;95094.84;;;30.50;25.05
7480;BME280;3781;42.272;22.658;2022-10-31T13:27:56;95071.28;;;30.19;25.26
7480;BME280;3781;42.272;22.658;2022-10-31T13:30:27;95095.25;;;29.80;25.83